createdAt,value
2016-09-27T00:00:07.536Z,960.40
2016-09-27T00:01:08.018Z,960.38
2016-09-27T00:02:07.558Z,960.39
2016-09-27T00:03:08.056Z,960.43
2016-09-27T00:04:07.564Z,960.46
2016-09-27T00:05:08.131Z,960.46
2016-09-27T00:06:07.637Z,960.41
2016-09-27T00:07:08.342Z,960.45
2016-09-27T00:08:07.859Z,960.42
2016-09-27T00:09:07.430Z,960.39
2016-09-27T00:10:08.020Z,960.39
2016-09-27T00:11:07.666Z,960.42
2016-09-27T00:12:08.031Z,960.36
2016-09-27T00:13:07.562Z,960.37
2016-09-27T00:14:07.984Z,960.41
2016-09-27T00:15:07.965Z,960.42
2016-09-27T00:16:07.434Z,960.43
2016-09-27T00:17:08.149Z,960.43
2016-09-27T00:18:07.829Z,960.43
2016-09-27T00:19:07.372Z,960.39
2016-09-27T00:20:07.869Z,960.39
2016-09-27T00:21:07.451Z,960.39
2016-09-27T00:22:07.972Z,960.42
2016-09-27T00:23:07.548Z,960.41
2016-09-27T00:24:08.086Z,960.45
2016-09-27T00:25:07.766Z,960.39
2016-09-27T00:26:07.799Z,960.46
2016-09-27T00:27:07.355Z,960.42
2016-09-27T00:28:07.821Z,960.44
2016-09-27T00:29:07.390Z,960.37
2016-09-27T00:30:07.919Z,960.38
2016-09-27T00:31:07.383Z,960.34
2016-09-27T00:32:07.963Z,960.36
2016-09-27T00:33:07.523Z,960.36
2016-09-27T00:34:08.048Z,960.36
2016-09-27T00:35:07.611Z,960.37
2016-09-27T00:36:08.210Z,960.35
2016-09-27T00:37:07.753Z,960.34
2016-09-27T00:38:08.267Z,960.36
2016-09-27T00:39:07.742Z,960.37
2016-09-27T00:40:08.305Z,960.36
2016-09-27T00:41:07.881Z,960.37
2016-09-27T00:42:07.402Z,960.38
2016-09-27T00:43:08.032Z,960.38
2016-09-27T00:44:07.541Z,960.39
2016-09-27T00:45:08.084Z,960.41
2016-09-27T00:46:07.623Z,960.42
2016-09-27T00:47:08.243Z,960.46
2016-09-27T00:48:07.680Z,960.46
2016-09-27T00:49:07.681Z,960.46
2016-09-27T00:50:08.270Z,960.45
2016-09-27T00:51:07.841Z,960.46
2016-09-27T00:52:07.320Z,960.48
2016-09-27T00:53:07.850Z,960.49
2016-09-27T00:54:07.440Z,960.50
2016-09-27T00:55:07.940Z,960.52
2016-09-27T00:56:07.586Z,960.52
2016-09-27T00:57:07.790Z,960.50
2016-09-27T00:58:07.289Z,960.52
2016-09-27T00:59:07.812Z,960.53
2016-09-27T01:00:07.300Z,960.52
2016-09-27T01:01:08.143Z,960.55
2016-09-27T01:02:07.771Z,960.55
2016-09-27T01:03:07.344Z,960.53
2016-09-27T01:04:07.913Z,960.51
2016-09-27T01:05:07.531Z,960.57
2016-09-27T01:06:08.102Z,960.55
2016-09-27T01:07:07.647Z,960.52
2016-09-27T01:08:08.207Z,960.54
2016-09-27T01:09:07.712Z,960.49
2016-09-27T01:10:08.235Z,960.51
2016-09-27T01:11:07.929Z,960.47
2016-09-27T01:12:07.542Z,960.50
2016-09-27T01:13:08.049Z,960.48
2016-09-27T01:14:07.526Z,960.49
2016-09-27T01:15:08.111Z,960.48
2016-09-27T01:16:08.290Z,960.51
2016-09-27T01:17:07.932Z,960.52
2016-09-27T01:18:07.461Z,960.55
2016-09-27T01:19:08.051Z,960.56
2016-09-27T01:20:08.030Z,960.52
2016-09-27T01:21:07.539Z,960.54
2016-09-27T01:22:08.048Z,960.51
2016-09-27T01:23:07.543Z,960.53
2016-09-27T01:24:08.140Z,960.57
2016-09-27T01:25:07.620Z,960.52
2016-09-27T01:26:08.563Z,960.55
2016-09-27T01:27:08.130Z,960.56
2016-09-27T01:28:07.672Z,960.55
2016-09-27T01:29:07.387Z,960.58
2016-09-27T01:30:07.979Z,960.61
2016-09-27T01:31:07.453Z,960.55
2016-09-27T01:32:08.009Z,960.59
2016-09-27T01:33:07.541Z,960.61
2016-09-27T01:34:08.095Z,960.58
2016-09-27T01:35:07.613Z,960.59
2016-09-27T01:36:08.131Z,960.59
2016-09-27T01:37:08.252Z,960.62
2016-09-27T01:38:07.891Z,960.65
2016-09-27T01:39:07.336Z,960.61
2016-09-27T01:40:07.931Z,960.69
2016-09-27T01:41:07.899Z,960.63
2016-09-27T01:42:07.495Z,960.69
2016-09-27T01:43:08.084Z,960.67
2016-09-27T01:44:07.897Z,960.67
2016-09-27T01:45:08.311Z,960.65
2016-09-27T01:46:07.973Z,960.67
2016-09-27T01:47:08.258Z,960.67
2016-09-27T01:48:07.641Z,960.63
2016-09-27T01:49:08.089Z,960.63
2016-09-27T01:50:07.662Z,960.63
2016-09-27T01:51:08.366Z,960.65
2016-09-27T01:52:07.910Z,960.60
2016-09-27T01:53:07.371Z,960.63
2016-09-27T01:54:08.252Z,960.61
2016-09-27T01:55:07.849Z,960.65
2016-09-27T01:56:08.058Z,960.63
2016-09-27T01:57:08.150Z,960.64
2016-09-27T01:58:07.714Z,960.61
2016-09-27T01:59:07.345Z,960.64
2016-09-27T02:00:07.937Z,960.65
2016-09-27T02:01:08.030Z,960.65
2016-09-27T02:02:07.777Z,960.64
2016-09-27T02:03:08.171Z,960.64
2016-09-27T02:04:07.708Z,960.68
2016-09-27T02:05:08.279Z,960.67
2016-09-27T02:06:07.840Z,960.66
2016-09-27T02:07:07.346Z,960.73
2016-09-27T02:08:07.862Z,960.67
2016-09-27T02:09:07.619Z,960.67
2016-09-27T02:10:08.472Z,960.67
2016-09-27T02:11:08.498Z,960.71
2016-09-27T02:12:08.121Z,960.66
2016-09-27T02:13:07.679Z,960.71
2016-09-27T02:14:08.208Z,960.74
2016-09-27T02:15:08.296Z,960.72
2016-09-27T02:16:07.786Z,960.74
2016-09-27T02:17:07.539Z,960.74
2016-09-27T02:18:08.065Z,960.75
2016-09-27T02:19:07.881Z,960.75
2016-09-27T02:20:07.887Z,960.76
2016-09-27T02:21:07.939Z,960.76
2016-09-27T02:22:07.491Z,960.75
2016-09-27T02:23:08.179Z,960.74
2016-09-27T02:24:07.334Z,960.74
2016-09-27T02:25:07.920Z,960.80
2016-09-27T02:26:08.047Z,960.75
2016-09-27T02:27:07.883Z,960.79
2016-09-27T02:28:07.530Z,960.76
2016-09-27T02:29:07.474Z,960.77
2016-09-27T02:30:08.008Z,960.75
2016-09-27T02:31:07.472Z,960.74
2016-09-27T02:32:07.349Z,960.83
2016-09-27T02:33:08.175Z,960.82
2016-09-27T02:34:07.682Z,960.81
2016-09-27T02:35:08.261Z,960.83
2016-09-27T02:36:07.239Z,960.82
2016-09-27T02:37:07.512Z,960.82
2016-09-27T02:38:08.130Z,960.80
2016-09-27T02:39:07.640Z,960.83
2016-09-27T02:40:08.171Z,960.82
2016-09-27T02:41:07.889Z,960.86
2016-09-27T02:42:08.088Z,960.85
2016-09-27T02:43:07.661Z,960.86
2016-09-27T02:44:08.096Z,960.84
2016-09-27T02:45:07.571Z,960.89
2016-09-27T02:46:08.142Z,960.91
2016-09-27T02:47:07.697Z,960.91
2016-09-27T02:48:08.336Z,960.90
2016-09-27T02:49:07.758Z,960.92
2016-09-27T02:50:07.312Z,960.89
2016-09-27T02:51:07.920Z,960.90
2016-09-27T02:52:07.414Z,960.89
2016-09-27T02:53:07.946Z,960.89
2016-09-27T02:54:07.510Z,960.88
2016-09-27T02:55:08.069Z,960.86
2016-09-27T02:56:08.154Z,960.90
2016-09-27T02:57:07.892Z,960.92
2016-09-27T02:58:07.550Z,960.91
2016-09-27T02:59:08.165Z,960.93
2016-09-27T03:00:07.702Z,960.97
2016-09-27T03:01:08.206Z,960.99
2016-09-27T03:02:07.649Z,960.97
2016-09-27T03:03:08.431Z,960.93
2016-09-27T03:04:07.965Z,961.02
2016-09-27T03:05:07.617Z,961.03
2016-09-27T03:06:08.098Z,960.97
2016-09-27T03:07:07.736Z,961.04
2016-09-27T03:08:08.561Z,961.00
2016-09-27T03:09:08.101Z,961.00
2016-09-27T03:10:07.647Z,961.00
2016-09-27T03:11:08.281Z,960.99
2016-09-27T03:12:07.971Z,960.96
2016-09-27T03:13:07.450Z,960.98
2016-09-27T03:14:07.991Z,961.00
2016-09-27T03:15:07.542Z,960.97
2016-09-27T03:16:08.121Z,960.98
2016-09-27T03:17:07.732Z,960.95
2016-09-27T03:18:08.231Z,960.96
2016-09-27T03:19:08.103Z,960.99
2016-09-27T03:20:07.590Z,960.98
2016-09-27T03:21:08.161Z,960.95
2016-09-27T03:22:07.681Z,960.98
2016-09-27T03:23:08.282Z,960.99
2016-09-27T03:24:07.891Z,961.03
2016-09-27T03:25:07.403Z,961.01
2016-09-27T03:26:08.223Z,961.05
2016-09-27T03:27:07.851Z,961.05
2016-09-27T03:28:07.403Z,961.02
2016-09-27T03:29:08.361Z,961.02
2016-09-27T03:30:08.074Z,961.02
2016-09-27T03:31:07.623Z,961.07
2016-09-27T03:32:08.182Z,961.04
2016-09-27T03:33:07.650Z,961.05
2016-09-27T03:34:08.276Z,961.00
2016-09-27T03:35:07.850Z,961.01
2016-09-27T03:36:07.304Z,961.04
2016-09-27T03:37:07.879Z,961.02
2016-09-27T03:38:07.401Z,961.01
2016-09-27T03:39:07.923Z,960.98
2016-09-27T03:40:07.472Z,961.03
2016-09-27T03:41:08.062Z,961.04
2016-09-27T03:42:07.702Z,961.05
2016-09-27T03:43:08.313Z,961.04
2016-09-27T03:44:07.795Z,961.06
2016-09-27T03:45:07.302Z,961.05
2016-09-27T03:46:07.821Z,961.07
2016-09-27T03:47:07.321Z,961.05
2016-09-27T03:48:07.795Z,961.06
2016-09-27T03:49:07.294Z,961.05
2016-09-27T03:50:07.782Z,961.07
2016-09-27T03:51:07.334Z,961.07
2016-09-27T03:52:07.792Z,961.09
2016-09-27T03:53:07.633Z,961.02
2016-09-27T03:54:08.165Z,961.08
2016-09-27T03:55:07.711Z,961.13
2016-09-27T03:56:08.559Z,961.14
2016-09-27T03:57:08.051Z,961.15
2016-09-27T03:58:07.590Z,961.13
2016-09-27T03:59:08.146Z,961.20
2016-09-27T04:00:07.755Z,961.16
2016-09-27T04:01:08.286Z,961.19
2016-09-27T04:02:07.856Z,961.17
2016-09-27T04:03:07.407Z,961.20
2016-09-27T04:04:07.937Z,961.16
2016-09-27T04:05:07.565Z,961.16
2016-09-27T04:06:08.055Z,961.19
2016-09-27T04:07:07.583Z,961.20
2016-09-27T04:08:08.173Z,961.19
2016-09-27T04:09:07.663Z,961.22
2016-09-27T04:10:08.235Z,961.24
2016-09-27T04:11:07.811Z,961.24
2016-09-27T04:12:07.346Z,961.22
2016-09-27T04:13:07.969Z,961.23
2016-09-27T04:14:07.454Z,961.23
2016-09-27T04:15:08.037Z,961.28
2016-09-27T04:16:07.582Z,961.20
2016-09-27T04:17:08.282Z,961.24
2016-09-27T04:18:07.716Z,961.19
2016-09-27T04:19:08.245Z,961.17
2016-09-27T04:20:07.850Z,961.21
2016-09-27T04:21:07.346Z,961.20
2016-09-27T04:22:07.847Z,961.21
2016-09-27T04:23:07.486Z,961.20
2016-09-27T04:24:07.963Z,961.21
2016-09-27T04:25:10.389Z,961.27
2016-09-27T04:26:08.517Z,961.25
2016-09-27T04:27:07.813Z,961.30
2016-09-27T04:28:07.490Z,961.32
2016-09-27T04:29:08.025Z,961.33
2016-09-27T04:30:07.596Z,961.37
2016-09-27T04:31:08.127Z,961.35
2016-09-27T04:32:07.667Z,961.40
2016-09-27T04:33:08.325Z,961.47
2016-09-27T04:34:08.053Z,961.45
2016-09-27T04:35:07.574Z,961.47
2016-09-27T04:36:08.166Z,961.43
2016-09-27T04:37:07.689Z,961.45
2016-09-27T04:38:08.261Z,961.44
2016-09-27T04:39:07.891Z,961.48
2016-09-27T04:40:07.504Z,961.51
2016-09-27T04:41:08.144Z,961.56
2016-09-27T04:42:07.785Z,961.53
2016-09-27T04:43:07.396Z,961.55
2016-09-27T04:44:07.928Z,961.59
2016-09-27T04:45:07.410Z,961.58
2016-09-27T04:46:07.901Z,961.60
2016-09-27T04:47:07.386Z,961.62
2016-09-27T04:48:08.014Z,961.62
2016-09-27T04:49:07.798Z,961.66
2016-09-27T04:50:07.319Z,961.68
2016-09-27T04:51:07.796Z,961.70
2016-09-27T04:52:07.355Z,961.70
2016-09-27T04:53:07.876Z,961.71
2016-09-27T04:54:07.447Z,961.71
2016-09-27T04:55:07.945Z,961.72
2016-09-27T04:56:07.611Z,961.72
2016-09-27T04:57:08.243Z,961.74
2016-09-27T04:58:07.827Z,961.76
2016-09-27T04:59:07.375Z,961.76
2016-09-27T05:00:07.924Z,961.78
2016-09-27T05:01:07.547Z,961.81
2016-09-27T05:02:08.108Z,961.82
2016-09-27T05:03:07.614Z,961.84
2016-09-27T05:04:08.179Z,961.84
2016-09-27T05:05:08.281Z,961.86
2016-09-27T05:06:07.772Z,961.89
2016-09-27T05:07:07.259Z,961.90
2016-09-27T05:08:07.762Z,961.92
2016-09-27T05:09:07.287Z,961.92
2016-09-27T05:10:07.843Z,961.94
2016-09-27T05:11:08.304Z,961.94
2016-09-27T05:12:07.793Z,961.97
2016-09-27T05:13:07.289Z,961.94
2016-09-27T05:14:07.886Z,961.97
2016-09-27T05:15:07.481Z,961.97
2016-09-27T05:16:08.197Z,961.97
2016-09-27T05:17:07.910Z,961.99
2016-09-27T05:18:07.368Z,962.01
2016-09-27T05:19:07.925Z,961.97
2016-09-27T05:20:07.487Z,962.06
2016-09-27T05:21:08.122Z,962.07
2016-09-27T05:22:07.666Z,962.07
2016-09-27T05:23:08.187Z,962.11
2016-09-27T05:24:07.847Z,962.11
2016-09-27T05:25:07.344Z,962.10
2016-09-27T05:26:08.692Z,962.18
2016-09-27T05:27:08.328Z,962.14
2016-09-27T05:28:07.877Z,962.17
2016-09-27T05:29:07.465Z,962.15
2016-09-27T05:30:08.057Z,962.20
2016-09-27T05:31:07.627Z,962.20
2016-09-27T05:32:08.226Z,962.21
2016-09-27T05:33:07.706Z,962.25
2016-09-27T05:34:08.259Z,962.26
2016-09-27T05:35:07.831Z,962.29
2016-09-27T05:36:07.328Z,962.31
2016-09-27T05:37:07.900Z,962.30
2016-09-27T05:38:07.574Z,962.29
2016-09-27T05:39:08.116Z,962.30
2016-09-27T05:40:07.727Z,962.30
2016-09-27T05:41:08.354Z,962.30
2016-09-27T05:42:07.947Z,962.30
2016-09-27T05:43:07.600Z,962.30
2016-09-27T05:44:08.112Z,962.31
2016-09-27T05:45:07.590Z,962.32
2016-09-27T05:46:08.113Z,962.37
2016-09-27T05:47:07.629Z,962.34
2016-09-27T05:48:08.195Z,962.38
2016-09-27T05:49:07.786Z,962.38
2016-09-27T05:50:07.325Z,962.41
2016-09-27T05:51:07.847Z,962.36
2016-09-27T05:52:07.415Z,962.40
2016-09-27T05:53:07.950Z,962.41
2016-09-27T05:54:07.474Z,962.40
2016-09-27T05:55:07.900Z,962.45
2016-09-27T05:56:08.849Z,962.48
2016-09-27T05:57:07.390Z,962.48
2016-09-27T05:58:07.915Z,962.48
2016-09-27T05:59:07.437Z,962.48
2016-09-27T06:00:07.987Z,962.53
2016-09-27T06:01:07.488Z,962.53
2016-09-27T06:02:08.033Z,962.58
2016-09-27T06:03:07.608Z,962.55
2016-09-27T06:04:08.118Z,962.57
2016-09-27T06:05:07.618Z,962.59
2016-09-27T06:06:08.187Z,962.59
2016-09-27T06:07:07.784Z,962.55
2016-09-27T06:08:07.355Z,962.62
2016-09-27T06:09:07.941Z,962.55
2016-09-27T06:10:07.437Z,962.62
2016-09-27T06:11:08.807Z,962.64
2016-09-27T06:12:07.284Z,962.69
2016-09-27T06:13:07.846Z,962.75
2016-09-27T06:14:07.372Z,962.73
2016-09-27T06:15:07.881Z,962.74
2016-09-27T06:16:07.352Z,962.74
2016-09-27T06:17:08.017Z,962.74
2016-09-27T06:18:07.549Z,962.73
2016-09-27T06:19:08.066Z,962.77
2016-09-27T06:20:07.544Z,962.75
2016-09-27T06:21:08.129Z,962.79
2016-09-27T06:22:07.624Z,962.78
2016-09-27T06:23:08.145Z,962.80
2016-09-27T06:24:07.684Z,962.82
2016-09-27T06:25:07.455Z,962.80
2016-09-27T06:26:08.880Z,962.78
2016-09-27T06:27:07.373Z,962.77
2016-09-27T06:28:07.930Z,962.81
2016-09-27T06:29:07.489Z,962.81
2016-09-27T06:30:08.044Z,962.79
2016-09-27T06:31:07.495Z,962.83
2016-09-27T06:32:08.037Z,962.85
2016-09-27T06:33:07.574Z,962.84
2016-09-27T06:34:08.155Z,962.85
2016-09-27T06:35:07.674Z,962.85
2016-09-27T06:36:08.282Z,962.84
2016-09-27T06:37:07.925Z,962.89
2016-09-27T06:38:07.482Z,962.88
2016-09-27T06:39:07.984Z,962.83
2016-09-27T06:40:07.525Z,962.89
2016-09-27T06:41:08.979Z,962.87
2016-09-27T06:42:07.485Z,962.96
2016-09-27T06:43:07.976Z,962.94
2016-09-27T06:44:07.447Z,962.96
2016-09-27T06:45:08.016Z,962.97
2016-09-27T06:46:07.588Z,962.98
2016-09-27T06:47:08.183Z,962.98
2016-09-27T06:48:07.705Z,963.01
2016-09-27T06:49:08.293Z,963.05
2016-09-27T06:50:07.852Z,963.04
2016-09-27T06:51:07.490Z,963.09
2016-09-27T06:52:08.084Z,963.09
2016-09-27T06:53:07.641Z,963.11
2016-09-27T06:54:08.234Z,963.11
2016-09-27T06:55:07.810Z,963.14
2016-09-27T06:56:07.800Z,963.15
2016-09-27T06:57:07.404Z,963.19
2016-09-27T06:58:07.995Z,963.20
2016-09-27T06:59:07.504Z,963.15
2016-09-27T07:00:08.175Z,963.20
2016-09-27T07:01:07.654Z,963.22
2016-09-27T07:02:08.220Z,963.25
2016-09-27T07:03:07.722Z,963.30
2016-09-27T07:04:08.269Z,963.29
2016-09-27T07:05:07.842Z,963.27
2016-09-27T07:06:07.385Z,963.31
2016-09-27T07:07:08.005Z,963.33
2016-09-27T07:08:07.442Z,963.31
2016-09-27T07:09:07.562Z,963.34
2016-09-27T07:10:08.145Z,963.37
2016-09-27T07:11:08.542Z,963.41
2016-09-27T07:12:08.152Z,963.43
2016-09-27T07:13:07.803Z,963.41
2016-09-27T07:14:07.261Z,963.47
2016-09-27T07:15:07.851Z,963.45
2016-09-27T07:16:07.434Z,963.44
2016-09-27T07:17:08.234Z,963.50
2016-09-27T07:18:07.784Z,963.49
2016-09-27T07:19:07.251Z,963.42
2016-09-27T07:20:07.756Z,963.46
2016-09-27T07:21:07.334Z,963.43
2016-09-27T07:22:07.972Z,963.43
2016-09-27T07:23:07.585Z,963.42
2016-09-27T07:24:08.123Z,963.50
2016-09-27T07:25:07.648Z,963.48
2016-09-27T07:26:09.124Z,963.54
2016-09-27T07:27:07.691Z,963.53
2016-09-27T07:28:08.325Z,963.58
2016-09-27T07:29:07.888Z,963.61
2016-09-27T07:30:07.407Z,963.60
2016-09-27T07:31:07.957Z,963.61
2016-09-27T07:32:07.551Z,963.58
2016-09-27T07:33:08.183Z,963.62
2016-09-27T07:34:07.706Z,963.62
2016-09-27T07:35:08.259Z,963.59
2016-09-27T07:36:07.733Z,963.61
2016-09-27T07:37:08.453Z,963.63
2016-09-27T07:38:08.027Z,963.63
2016-09-27T07:39:07.550Z,963.63
2016-09-27T07:40:08.086Z,963.65
2016-09-27T07:41:07.692Z,963.63
2016-09-27T07:42:08.295Z,963.68
2016-09-27T07:43:07.804Z,963.63
2016-09-27T07:44:07.374Z,963.65
2016-09-27T07:45:07.855Z,963.67
2016-09-27T07:46:07.496Z,963.69
2016-09-27T07:47:08.015Z,963.66
2016-09-27T07:48:07.577Z,963.70
2016-09-27T07:49:08.149Z,963.67
2016-09-27T07:50:07.605Z,963.68
2016-09-27T07:51:08.146Z,963.71
2016-09-27T07:52:07.676Z,963.70
2016-09-27T07:53:08.283Z,963.70
2016-09-27T07:54:07.936Z,963.75
2016-09-27T07:55:07.427Z,963.77
2016-09-27T07:56:08.868Z,963.77
2016-09-27T07:57:07.328Z,963.76
2016-09-27T07:58:07.902Z,963.75
2016-09-27T07:59:07.398Z,963.76
2016-09-27T08:00:07.938Z,963.75
2016-09-27T08:01:07.435Z,963.84
2016-09-27T08:02:08.018Z,963.79
2016-09-27T08:03:07.622Z,963.76
2016-09-27T08:04:08.287Z,963.81
2016-09-27T08:05:07.817Z,963.82
2016-09-27T08:06:07.334Z,963.85
2016-09-27T08:07:07.917Z,963.84
2016-09-27T08:08:07.494Z,963.87
2016-09-27T08:09:08.070Z,963.84
2016-09-27T08:10:07.623Z,963.83
2016-09-27T08:11:08.699Z,963.88
2016-09-27T08:12:08.328Z,963.84
2016-09-27T08:13:07.949Z,963.84
2016-09-27T08:14:07.510Z,963.85
2016-09-27T08:15:08.061Z,963.83
2016-09-27T08:16:07.604Z,963.85
2016-09-27T08:17:08.324Z,963.83
2016-09-27T08:18:07.866Z,963.86
2016-09-27T08:19:07.423Z,963.84
2016-09-27T08:20:07.931Z,963.85
2016-09-27T08:21:07.437Z,963.89
2016-09-27T08:22:07.921Z,963.87
2016-09-27T08:23:07.438Z,963.87
2016-09-27T08:24:07.999Z,963.88
2016-09-27T08:25:07.552Z,963.87
2016-09-27T08:26:08.980Z,963.88
2016-09-27T08:27:07.643Z,963.88
2016-09-27T08:28:08.238Z,963.92
2016-09-27T08:29:07.785Z,963.86
2016-09-27T08:30:07.276Z,963.89
2016-09-27T08:31:07.842Z,963.90
2016-09-27T08:32:07.387Z,963.90
2016-09-27T08:33:08.016Z,963.90
2016-09-27T08:34:07.569Z,963.90
2016-09-27T08:35:08.181Z,963.92
2016-09-27T08:36:07.747Z,963.92
2016-09-27T08:37:08.240Z,963.91
2016-09-27T08:38:07.767Z,963.94
2016-09-27T08:39:07.221Z,963.97
2016-09-27T08:40:07.813Z,963.89
2016-09-27T08:41:07.363Z,963.94
2016-09-27T08:42:07.891Z,963.92
2016-09-27T08:43:07.420Z,963.98
2016-09-27T08:44:08.062Z,963.97
2016-09-27T08:45:07.671Z,963.98
2016-09-27T08:46:08.236Z,964.01
2016-09-27T08:47:07.810Z,963.99
2016-09-27T08:48:07.347Z,964.02
2016-09-27T08:49:07.820Z,964.04
2016-09-27T08:50:07.300Z,964.10
2016-09-27T08:51:07.801Z,964.00
2016-09-27T08:52:07.311Z,964.03
2016-09-27T08:53:07.940Z,964.06
2016-09-27T08:54:07.389Z,964.07
2016-09-27T08:55:07.979Z,964.07
2016-09-27T08:56:07.675Z,964.07
2016-09-27T08:57:08.288Z,964.03
2016-09-27T08:58:07.870Z,964.05
2016-09-27T08:59:07.499Z,964.07
2016-09-27T09:00:08.105Z,964.05
2016-09-27T09:01:07.707Z,964.05
2016-09-27T09:02:08.169Z,964.09
2016-09-27T09:03:07.734Z,964.05
2016-09-27T09:04:08.308Z,964.03
2016-09-27T09:05:07.815Z,964.04
2016-09-27T09:06:07.291Z,964.05
2016-09-27T09:07:07.760Z,964.04
2016-09-27T09:08:07.370Z,964.01
2016-09-27T09:09:07.932Z,964.03
2016-09-27T09:10:07.455Z,964.03
2016-09-27T09:11:08.049Z,964.03
2016-09-27T09:12:07.601Z,964.07
2016-09-27T09:13:08.204Z,964.04
2016-09-27T09:14:07.837Z,964.07
2016-09-27T09:15:07.394Z,964.13
2016-09-27T09:16:07.902Z,964.10
2016-09-27T09:17:07.582Z,964.11
2016-09-27T09:18:08.184Z,964.07
2016-09-27T09:19:08.024Z,964.10
2016-09-27T09:20:07.557Z,964.06
2016-09-27T09:21:08.085Z,964.05
2016-09-27T09:22:07.718Z,964.05
2016-09-27T09:23:08.331Z,964.04
2016-09-27T09:24:07.795Z,964.05
2016-09-27T09:25:07.352Z,964.08
2016-09-27T09:26:08.366Z,964.02
2016-09-27T09:27:07.892Z,964.03
2016-09-27T09:28:07.431Z,964.09
2016-09-27T09:29:08.033Z,964.10
2016-09-27T09:30:07.738Z,964.11
2016-09-27T09:31:08.388Z,964.13
2016-09-27T09:32:07.911Z,964.11
2016-09-27T09:33:07.500Z,964.05
2016-09-27T09:34:08.099Z,964.09
2016-09-27T09:35:07.544Z,964.03
2016-09-27T09:36:08.118Z,964.05
2016-09-27T09:37:07.659Z,964.10
2016-09-27T09:38:08.236Z,964.08
2016-09-27T09:39:07.768Z,964.11
2016-09-27T09:40:08.296Z,964.12
2016-09-27T09:41:08.258Z,964.13
2016-09-27T09:42:07.931Z,964.15
2016-09-27T09:43:07.500Z,964.18
2016-09-27T09:44:08.157Z,964.14
2016-09-27T09:45:07.641Z,964.18
2016-09-27T09:46:08.239Z,964.15
2016-09-27T09:47:07.800Z,964.18
2016-09-27T09:48:07.283Z,964.17
2016-09-27T09:49:07.806Z,964.20
2016-09-27T09:50:07.307Z,964.21
2016-09-27T09:51:07.867Z,964.27
2016-09-27T09:52:07.488Z,964.26
2016-09-27T09:53:08.062Z,964.27
2016-09-27T09:54:07.576Z,964.27
2016-09-27T09:55:08.106Z,964.26
2016-09-27T09:56:07.921Z,964.33
2016-09-27T09:57:07.539Z,964.33
2016-09-27T09:58:08.101Z,964.35
2016-09-27T09:59:07.615Z,964.33
2016-09-27T10:00:08.139Z,964.32
2016-09-27T10:01:07.691Z,964.32
2016-09-27T10:02:08.220Z,964.35
2016-09-27T10:03:07.692Z,964.35
2016-09-27T10:04:08.272Z,964.35
2016-09-27T10:05:07.788Z,964.33
2016-09-27T10:06:07.226Z,964.33
2016-09-27T10:07:07.707Z,964.36
2016-09-27T10:08:08.353Z,964.37
2016-09-27T10:09:07.911Z,964.37
2016-09-27T10:10:07.411Z,964.39
2016-09-27T10:11:07.981Z,964.41
2016-09-27T10:12:07.481Z,964.41
2016-09-27T10:13:08.091Z,964.48
2016-09-27T10:14:07.669Z,964.45
2016-09-27T10:15:08.172Z,964.38
2016-09-27T10:16:07.668Z,964.40
2016-09-27T10:17:08.331Z,964.37
2016-09-27T10:18:07.849Z,964.40
2016-09-27T10:19:07.315Z,964.38
2016-09-27T10:20:07.880Z,964.40
2016-09-27T10:21:07.437Z,964.41
2016-09-27T10:22:08.026Z,964.40
2016-09-27T10:23:07.512Z,964.43
2016-09-27T10:24:08.126Z,964.45
2016-09-27T10:25:07.686Z,964.48
2016-09-27T10:26:09.078Z,964.41
2016-09-27T10:27:07.708Z,964.45
2016-09-27T10:28:08.279Z,964.45
2016-09-27T10:29:07.905Z,964.50
2016-09-27T10:30:07.708Z,964.44
2016-09-27T10:31:08.183Z,964.51
2016-09-27T10:32:07.712Z,964.47
2016-09-27T10:33:08.238Z,964.54
2016-09-27T10:34:07.875Z,964.52
2016-09-27T10:35:07.439Z,964.51
2016-09-27T10:36:07.903Z,964.55
2016-09-27T10:37:07.430Z,964.53
2016-09-27T10:38:07.908Z,964.55
2016-09-27T10:39:07.441Z,964.55
2016-09-27T10:40:07.975Z,964.56
2016-09-27T10:41:07.480Z,964.59
2016-09-27T10:42:08.051Z,964.58
2016-09-27T10:43:07.597Z,964.55
2016-09-27T10:44:08.275Z,964.59
2016-09-27T10:45:07.822Z,964.62
2016-09-27T10:46:07.263Z,964.59
2016-09-27T10:47:07.740Z,964.65
2016-09-27T10:48:08.390Z,964.63
2016-09-27T10:49:07.940Z,964.63
2016-09-27T10:50:07.511Z,964.67
2016-09-27T10:51:07.946Z,964.66
2016-09-27T10:52:07.508Z,964.64
2016-09-27T10:53:07.996Z,964.66
2016-09-27T10:54:07.618Z,964.69
2016-09-27T10:55:08.199Z,964.70
2016-09-27T10:56:07.939Z,964.66
2016-09-27T10:57:07.629Z,964.66
2016-09-27T10:58:08.187Z,964.65
2016-09-27T10:59:07.747Z,964.66
2016-09-27T11:00:08.334Z,964.70
2016-09-27T11:01:07.931Z,964.71
2016-09-27T11:02:08.039Z,964.68
2016-09-27T11:03:07.623Z,964.69
2016-09-27T11:04:08.138Z,964.70
2016-09-27T11:05:07.676Z,964.75
2016-09-27T11:06:08.153Z,964.74
2016-09-27T11:07:07.613Z,964.71
2016-09-27T11:08:08.159Z,964.74
2016-09-27T11:09:07.816Z,964.75
2016-09-27T11:10:07.331Z,964.73
2016-09-27T11:11:07.969Z,964.76
2016-09-27T11:12:07.575Z,964.70
2016-09-27T11:13:08.146Z,964.73
2016-09-27T11:14:07.719Z,964.71
2016-09-27T11:15:08.287Z,964.73
2016-09-27T11:16:07.849Z,964.74
2016-09-27T11:17:07.472Z,964.68
2016-09-27T11:18:08.024Z,964.68
2016-09-27T11:19:07.484Z,964.71
2016-09-27T11:20:08.022Z,964.66
2016-09-27T11:21:07.665Z,964.66
2016-09-27T11:22:08.266Z,964.69
2016-09-27T11:23:07.875Z,964.68
2016-09-27T11:24:07.433Z,964.68
2016-09-27T11:25:08.009Z,964.70
2016-09-27T11:26:07.564Z,964.70
2016-09-27T11:27:08.076Z,964.70
2016-09-27T11:28:07.594Z,964.64
2016-09-27T11:29:08.148Z,964.66
2016-09-27T11:30:07.622Z,964.64
2016-09-27T11:31:08.188Z,964.63
2016-09-27T11:32:07.713Z,964.63
2016-09-27T11:33:08.332Z,964.58
2016-09-27T11:34:08.003Z,964.61
2016-09-27T11:35:07.537Z,964.62
2016-09-27T11:36:08.088Z,964.61
2016-09-27T11:37:07.564Z,964.57
2016-09-27T11:38:08.185Z,964.63
2016-09-27T11:39:07.798Z,964.61
2016-09-27T11:40:07.407Z,964.55
2016-09-27T11:41:07.886Z,964.61
2016-09-27T11:42:07.393Z,964.57
2016-09-27T11:43:07.954Z,964.58
2016-09-27T11:44:07.535Z,964.59
2016-09-27T11:45:08.084Z,964.62
2016-09-27T11:46:07.643Z,964.62
2016-09-27T11:47:08.095Z,964.61
2016-09-27T11:48:07.520Z,964.56
2016-09-27T11:49:08.176Z,964.62
2016-09-27T11:50:07.647Z,964.62
2016-09-27T11:51:08.175Z,964.59
2016-09-27T11:52:07.728Z,964.63
2016-09-27T11:53:08.332Z,964.61
2016-09-27T11:54:07.903Z,964.64
2016-09-27T11:55:07.423Z,964.59
2016-09-27T11:56:07.934Z,964.63
2016-09-27T11:57:07.481Z,964.56
2016-09-27T11:58:08.043Z,964.60
2016-09-27T11:59:07.602Z,964.59
2016-09-27T12:00:08.164Z,964.58
2016-09-27T12:01:07.631Z,964.54
2016-09-27T12:02:08.214Z,964.57
2016-09-27T12:03:07.689Z,964.53
2016-09-27T12:04:08.256Z,964.49
2016-09-27T12:05:07.834Z,964.53
2016-09-27T12:06:07.289Z,964.50
2016-09-27T12:07:07.854Z,964.53
2016-09-27T12:08:07.345Z,964.47
2016-09-27T12:09:07.859Z,964.51
2016-09-27T12:10:07.331Z,964.51
2016-09-27T12:11:07.914Z,964.50
2016-09-27T12:12:07.441Z,964.50
2016-09-27T12:13:07.972Z,964.48
2016-09-27T12:14:07.377Z,964.50
2016-09-27T12:15:07.954Z,964.50
2016-09-27T12:16:07.633Z,964.50
2016-09-27T12:17:08.346Z,964.52
2016-09-27T12:18:07.907Z,964.51
2016-09-27T12:19:07.499Z,964.51
2016-09-27T12:20:08.093Z,964.54
2016-09-27T12:21:07.683Z,964.53
2016-09-27T12:22:08.314Z,964.50
2016-09-27T12:23:07.821Z,964.52
2016-09-27T12:24:07.355Z,964.54
2016-09-27T12:25:07.881Z,964.53
2016-09-27T12:26:07.504Z,964.53
2016-09-27T12:27:08.045Z,964.51
2016-09-27T12:28:07.616Z,964.58